createdAt,value
2023-03-08T00:00:17.907Z,2.30
2023-03-08T00:02:44.254Z,2.20
2023-03-08T00:05:10.439Z,2.70
2023-03-08T00:07:37.000Z,1.80
2023-03-08T00:10:04.090Z,1.53
2023-03-08T00:12:30.220Z,1.63
2023-03-08T00:14:56.348Z,1.23
2023-03-08T00:17:23.651Z,1.20
2023-03-08T00:19:51.181Z,1.17
2023-03-08T00:22:17.277Z,1.37
2023-03-08T00:24:43.333Z,1.23
2023-03-08T00:27:09.406Z,1.27
2023-03-08T00:29:35.586Z,1.20
2023-03-08T00:32:01.718Z,1.50
2023-03-08T00:34:27.923Z,2.10
2023-03-08T00:36:54.035Z,6.73
2023-03-08T00:39:20.134Z,2.47
2023-03-08T00:41:46.171Z,2.50
2023-03-08T00:44:12.242Z,2.40
2023-03-08T00:46:38.446Z,2.30
2023-03-08T00:49:04.623Z,2.63
2023-03-08T00:51:30.729Z,2.60
2023-03-08T00:53:56.907Z,2.93
2023-03-08T00:56:23.031Z,5.17
2023-03-08T00:58:49.100Z,7.17
2023-03-08T01:01:17.161Z,6.70
2023-03-08T01:03:43.385Z,7.07
2023-03-08T01:06:12.329Z,7.30
2023-03-08T01:08:41.329Z,6.43
2023-03-08T01:11:14.974Z,8.57
2023-03-08T01:13:41.048Z,3.93
2023-03-08T01:16:15.038Z,3.47
2023-03-08T01:18:41.091Z,4.97
2023-03-08T01:21:07.150Z,4.70
2023-03-08T01:23:33.252Z,3.07
2023-03-08T01:26:00.052Z,2.97
2023-03-08T01:28:26.242Z,2.90
2023-03-08T01:30:52.302Z,3.50
2023-03-08T01:33:20.228Z,2.93
2023-03-08T01:35:47.275Z,2.90
2023-03-08T01:38:13.356Z,3.93
2023-03-08T01:40:39.515Z,3.27
2023-03-08T01:43:22.866Z,3.67
2023-03-08T01:46:17.919Z,3.50
2023-03-08T01:48:58.876Z,4.07
2023-03-08T01:51:51.598Z,4.30
2023-03-08T01:54:26.510Z,3.90
2023-03-08T01:56:54.932Z,4.10
2023-03-08T01:59:22.053Z,4.23
2023-03-08T02:01:48.679Z,4.57
2023-03-08T02:04:14.924Z,4.70
2023-03-08T02:06:42.251Z,4.80
2023-03-08T02:09:08.412Z,5.17
2023-03-08T02:11:49.994Z,5.27
2023-03-08T02:14:16.047Z,6.30
2023-03-08T02:16:42.461Z,6.87
2023-03-08T02:19:23.218Z,6.50
2023-03-08T02:21:49.298Z,6.90
2023-03-08T02:24:23.388Z,6.23
2023-03-08T02:26:51.641Z,8.00
2023-03-08T02:29:18.331Z,6.80
2023-03-08T02:31:44.465Z,6.60
2023-03-08T02:34:10.563Z,7.33
2023-03-08T02:36:36.614Z,7.60
2023-03-08T02:39:02.885Z,6.10
2023-03-08T02:41:28.915Z,6.00
2023-03-08T02:43:55.024Z,6.67
2023-03-08T02:46:21.168Z,5.70
2023-03-08T02:48:47.372Z,6.37
2023-03-08T02:51:13.478Z,5.60
2023-03-08T02:53:39.610Z,6.17
2023-03-08T02:56:06.249Z,6.43
2023-03-08T02:58:32.318Z,6.90
2023-03-08T03:00:58.453Z,5.67
2023-03-08T03:03:24.629Z,6.37
2023-03-08T03:05:50.803Z,6.67
2023-03-08T03:08:16.869Z,5.90
2023-03-08T03:10:42.935Z,7.00
2023-03-08T03:13:09.028Z,6.83
2023-03-08T03:15:38.096Z,6.67
2023-03-08T03:18:05.197Z,6.03
2023-03-08T03:20:32.808Z,5.43
2023-03-08T03:22:59.092Z,6.77
2023-03-08T03:25:25.267Z,5.80
2023-03-08T03:27:53.119Z,5.73
2023-03-08T03:30:19.236Z,6.20
2023-03-08T03:32:45.406Z,6.20
2023-03-08T03:35:11.460Z,6.20
2023-03-08T03:37:37.597Z,5.90
2023-03-08T03:40:04.652Z,6.50
2023-03-08T03:42:30.758Z,5.87
2023-03-08T03:44:56.926Z,5.77
2023-03-08T03:47:23.140Z,6.43
2023-03-08T03:49:49.270Z,6.60
2023-03-08T03:52:15.339Z,5.37
2023-03-08T03:54:41.415Z,5.47
2023-03-08T03:57:07.488Z,6.13
2023-03-08T03:59:33.622Z,6.20
2023-03-08T04:01:59.739Z,5.83
2023-03-08T04:04:25.827Z,5.40
2023-03-08T04:06:51.961Z,4.80
2023-03-08T04:09:18.772Z,4.73
2023-03-08T04:11:45.057Z,5.23
2023-03-08T04:14:11.178Z,3.90
2023-03-08T04:16:38.885Z,4.50
2023-03-08T04:19:07.607Z,4.20
2023-03-08T04:21:34.096Z,5.10
2023-03-08T04:24:00.851Z,5.27
2023-03-08T04:26:27.225Z,4.33
2023-03-08T04:28:53.400Z,4.60
2023-03-08T04:31:28.987Z,4.00
2023-03-08T04:33:56.564Z,4.70
2023-03-08T04:36:23.008Z,4.17
2023-03-08T04:38:49.599Z,3.47
2023-03-08T04:41:16.632Z,4.10
2023-03-08T04:43:46.988Z,4.60
2023-03-08T04:46:14.364Z,4.50
2023-03-08T04:48:40.688Z,3.73
2023-03-08T04:51:07.800Z,3.90
2023-03-08T04:53:34.494Z,3.63
2023-03-08T04:56:00.716Z,4.00
2023-03-08T04:58:27.861Z,3.40
2023-03-08T05:00:54.160Z,3.87
2023-03-08T05:03:20.389Z,3.80
2023-03-08T05:05:51.852Z,4.90
2023-03-08T05:08:18.545Z,4.13
2023-03-08T05:11:00.793Z,3.73
2023-03-08T05:13:29.147Z,3.80
2023-03-08T05:15:55.753Z,3.63
2023-03-08T05:18:21.887Z,3.73
2023-03-08T05:20:58.696Z,5.20
2023-03-08T05:23:28.185Z,4.00
2023-03-08T05:25:56.589Z,8.97
2023-03-08T05:28:24.223Z,4.27
2023-03-08T05:30:50.609Z,3.93
2023-03-08T05:33:17.133Z,6.57
2023-03-08T05:35:43.572Z,5.87
2023-03-08T05:38:09.738Z,4.47
2023-03-08T05:40:37.148Z,6.03
2023-03-08T05:43:03.259Z,5.40
2023-03-08T05:45:29.487Z,5.33
2023-03-08T05:47:55.664Z,6.13
2023-03-08T05:50:21.756Z,6.07
2023-03-08T05:52:48.049Z,6.80
2023-03-08T05:55:14.235Z,8.47
2023-03-08T05:57:40.368Z,8.97
2023-03-08T06:00:07.367Z,11.13
2023-03-08T06:02:33.485Z,10.10
2023-03-08T06:04:59.634Z,9.77
2023-03-08T06:07:25.746Z,9.73
2023-03-08T06:09:51.920Z,9.83
2023-03-08T06:12:18.047Z,10.60
2023-03-08T06:14:44.123Z,11.10
2023-03-08T06:17:10.230Z,12.13
2023-03-08T06:19:36.317Z,11.17
2023-03-08T06:22:02.394Z,11.80
2023-03-08T06:24:28.607Z,11.53
2023-03-08T06:26:55.531Z,9.70
2023-03-08T06:29:22.228Z,9.60
2023-03-08T06:31:48.349Z,10.50
2023-03-08T06:34:14.490Z,10.10
2023-03-08T06:36:40.596Z,10.20
2023-03-08T06:39:06.718Z,9.27
2023-03-08T06:41:32.900Z,9.30
2023-03-08T06:43:59.079Z,9.30
2023-03-08T06:46:25.218Z,9.40
2023-03-08T06:48:52.070Z,9.03
2023-03-08T06:51:18.628Z,9.30
2023-03-08T06:53:45.529Z,9.27
2023-03-08T06:56:13.868Z,9.97
2023-03-08T06:58:40.087Z,9.87
2023-03-08T07:01:06.371Z,9.90
2023-03-08T07:03:33.134Z,9.80
2023-03-08T07:06:00.474Z,9.87
2023-03-08T07:08:26.943Z,9.77
2023-03-08T07:10:53.525Z,8.20
2023-03-08T07:13:21.356Z,9.87
2023-03-08T07:15:47.553Z,8.53
2023-03-08T07:18:15.949Z,8.93
2023-03-08T07:20:42.743Z,8.27
2023-03-08T07:23:08.867Z,9.17
2023-03-08T07:25:37.745Z,8.43
2023-03-08T07:28:04.133Z,6.33
2023-03-08T07:30:30.209Z,7.53
2023-03-08T07:32:56.411Z,6.97
2023-03-08T07:35:22.567Z,5.67
2023-03-08T07:37:48.651Z,7.30
2023-03-08T07:40:16.906Z,5.30
2023-03-08T07:42:43.513Z,6.23
2023-03-08T07:45:11.165Z,4.73
2023-03-08T07:47:37.524Z,3.67
2023-03-08T07:50:03.883Z,5.30
2023-03-08T07:52:30.630Z,3.50
2023-03-08T07:54:57.036Z,3.00
2023-03-08T07:57:23.869Z,3.40
2023-03-08T07:59:50.572Z,3.13
2023-03-08T08:02:31.663Z,7.03
2023-03-08T08:04:57.828Z,2.90
2023-03-08T08:07:24.073Z,2.50
2023-03-08T08:09:50.243Z,2.40
2023-03-08T08:12:16.469Z,2.30
2023-03-08T08:14:42.589Z,2.30
2023-03-08T08:17:08.747Z,1.80
2023-03-08T08:19:34.966Z,1.50
2023-03-08T08:22:01.109Z,2.07
2023-03-08T08:24:27.757Z,0.97
2023-03-08T08:26:53.884Z,1.20
2023-03-08T08:29:19.980Z,3.00
2023-03-08T08:31:46.192Z,1.37
2023-03-08T08:34:12.379Z,2.40
2023-03-08T08:36:38.527Z,1.00
2023-03-08T08:39:04.919Z,1.03
2023-03-08T08:41:31.672Z,1.00
2023-03-08T08:43:59.397Z,0.90
2023-03-08T08:46:27.196Z,4.40
2023-03-08T08:48:54.607Z,4.57
2023-03-08T08:51:20.753Z,1.37
2023-03-08T08:53:47.085Z,1.60
2023-03-08T08:56:27.296Z,1.20
2023-03-08T08:58:56.059Z,1.20
2023-03-08T09:01:25.008Z,1.60
2023-03-08T09:03:51.999Z,2.07
2023-03-08T09:06:19.952Z,1.77
2023-03-08T09:08:54.224Z,2.20
2023-03-08T09:11:21.243Z,2.03
2023-03-08T09:13:47.497Z,2.00
2023-03-08T09:16:25.552Z,2.47
2023-03-08T09:18:52.367Z,2.53
2023-03-08T09:21:18.759Z,3.30
2023-03-08T09:23:45.213Z,3.23
2023-03-08T09:26:11.773Z,3.13
2023-03-08T09:28:37.908Z,2.73
2023-03-08T09:31:14.125Z,2.20
2023-03-08T09:33:53.432Z,2.50
2023-03-08T09:36:20.115Z,3.17
2023-03-08T09:38:47.778Z,2.50
2023-03-08T09:41:16.831Z,2.70
2023-03-08T09:43:55.202Z,2.33
2023-03-08T09:46:27.783Z,2.33
2023-03-08T09:48:54.975Z,2.30
2023-03-08T09:51:22.994Z,2.30
2023-03-08T09:53:57.103Z,2.80
2023-03-08T09:56:38.959Z,2.57
2023-03-08T09:59:12.755Z,2.43
2023-03-08T10:01:58.373Z,2.60
2023-03-08T10:04:35.776Z,3.00
2023-03-08T10:07:17.599Z,4.47
2023-03-08T10:09:50.956Z,2.30
2023-03-08T10:12:28.791Z,2.17
2023-03-08T10:15:04.556Z,2.10
2023-03-08T10:17:42.884Z,3.10
2023-03-08T10:20:21.950Z,2.30
2023-03-08T10:22:53.807Z,2.00
2023-03-08T10:25:28.008Z,2.57
2023-03-08T10:27:55.788Z,2.57
2023-03-08T10:30:33.622Z,2.57
2023-03-08T10:33:05.146Z,2.63
2023-03-08T10:35:37.375Z,3.13
2023-03-08T10:38:05.174Z,2.33
2023-03-08T10:40:31.407Z,2.50
2023-03-08T10:43:04.774Z,2.50
2023-03-08T10:45:31.973Z,2.33
2023-03-08T10:48:00.709Z,2.70
2023-03-08T10:50:36.836Z,2.70
2023-03-08T10:53:19.263Z,4.10
2023-03-08T10:55:47.794Z,3.30
2023-03-08T10:58:43.193Z,2.90
2023-03-08T11:01:33.613Z,3.47
2023-03-08T11:04:14.402Z,3.70
2023-03-08T11:06:41.036Z,3.83
2023-03-08T11:09:23.827Z,3.93
2023-03-08T11:11:50.010Z,3.70
2023-03-08T11:14:16.240Z,4.40
2023-03-08T11:16:42.569Z,4.47
2023-03-08T11:19:33.632Z,5.00
2023-03-08T11:22:14.084Z,3.97
2023-03-08T11:25:08.089Z,3.97
2023-03-08T11:28:11.699Z,4.10
2023-03-08T11:30:42.209Z,4.10
2023-03-08T11:33:36.151Z,4.10
2023-03-08T11:36:13.091Z,3.80
2023-03-08T11:38:39.631Z,3.60
2023-03-08T11:41:33.826Z,4.43
2023-03-08T11:44:31.022Z,3.77
2023-03-08T11:47:40.626Z,4.50
2023-03-08T11:50:22.967Z,5.00
2023-03-08T11:53:18.789Z,4.13
2023-03-08T11:55:56.948Z,4.50
2023-03-08T11:58:33.364Z,4.97
2023-03-08T12:01:14.192Z,4.97
2023-03-08T12:03:49.083Z,4.40
2023-03-08T12:06:29.606Z,5.80
2023-03-08T12:09:09.421Z,4.53
2023-03-08T12:11:43.134Z,4.90
2023-03-08T12:14:17.683Z,4.33
2023-03-08T12:16:56.971Z,4.50
2023-03-08T12:19:46.061Z,4.70
2023-03-08T12:22:26.291Z,4.53
2023-03-08T12:25:23.560Z,4.53
2023-03-08T12:28:16.848Z,4.67
2023-03-08T12:30:58.884Z,4.90
2023-03-08T12:33:31.743Z,4.33
2023-03-08T12:36:05.242Z,4.57
2023-03-08T12:38:44.874Z,4.10
2023-03-08T12:41:25.404Z,4.80
2023-03-08T12:44:04.286Z,4.97
2023-03-08T12:47:00.213Z,4.60
2023-03-08T12:49:40.290Z,4.80
2023-03-08T12:52:16.998Z,4.60
2023-03-08T12:54:58.667Z,5.80
2023-03-08T12:57:42.177Z,7.27
2023-03-08T13:00:19.083Z,5.70
2023-03-08T13:03:36.554Z,6.13
2023-03-08T13:07:06.611Z,6.83
2023-03-08T13:09:46.154Z,6.23
2023-03-08T13:12:27.789Z,6.17
2023-03-08T13:15:17.973Z,6.17
2023-03-08T13:17:59.012Z,6.97
2023-03-08T13:20:41.814Z,5.83
2023-03-08T13:23:45.525Z,4.73
2023-03-08T13:26:50.258Z,5.30
2023-03-08T13:29:22.411Z,5.57
2023-03-08T13:31:55.009Z,5.87
2023-03-08T13:34:31.844Z,6.50
2023-03-08T13:37:03.006Z,6.30
2023-03-08T13:39:34.086Z,6.43
2023-03-08T13:42:10.359Z,5.93
2023-03-08T13:44:43.983Z,6.03
2023-03-08T13:47:21.866Z,5.67
2023-03-08T13:49:54.378Z,5.60
2023-03-08T13:52:30.680Z,6.23
2023-03-08T13:55:03.714Z,7.07
2023-03-08T13:57:36.749Z,5.50
2023-03-08T14:00:18.321Z,6.70
2023-03-08T14:02:48.895Z,5.20
2023-03-08T14:05:22.589Z,5.67
2023-03-08T14:07:58.126Z,5.77
2023-03-08T14:10:45.136Z,5.17
2023-03-08T14:13:25.213Z,5.60
2023-03-08T14:15:58.536Z,5.93
2023-03-08T14:18:42.930Z,5.77
2023-03-08T14:21:16.470Z,5.13
2023-03-08T14:23:52.224Z,4.93
2023-03-08T14:26:31.385Z,5.37
2023-03-08T14:29:01.864Z,4.60
2023-03-08T14:31:33.151Z,4.80
2023-03-08T14:34:18.658Z,4.93
2023-03-08T14:36:56.497Z,5.20
2023-03-08T14:39:28.421Z,5.00
2023-03-08T14:42:08.692Z,5.43
2023-03-08T14:44:40.470Z,5.70
2023-03-08T14:47:28.717Z,5.93
2023-03-08T14:50:18.179Z,5.10
2023-03-08T14:52:55.153Z,4.87
2023-03-08T14:55:34.323Z,4.23
2023-03-08T14:58:11.628Z,4.93
2023-03-08T15:00:49.961Z,4.40
2023-03-08T15:03:20.333Z,6.30
2023-03-08T15:05:52.301Z,5.30
2023-03-08T15:08:23.842Z,5.50
2023-03-08T15:10:54.391Z,5.20
2023-03-08T15:13:24.907Z,4.40
2023-03-08T15:15:59.985Z,5.67
2023-03-08T15:18:30.180Z,4.53
2023-03-08T15:21:00.524Z,5.10
2023-03-08T15:23:33.526Z,4.53
2023-03-08T15:26:07.842Z,4.50
2023-03-08T15:28:38.001Z,5.30
2023-03-08T15:31:08.814Z,5.63
2023-03-08T15:33:39.293Z,4.50
2023-03-08T15:36:15.301Z,6.13
2023-03-08T15:38:41.862Z,7.20
2023-03-08T15:41:17.344Z,7.63
2023-03-08T15:43:47.883Z,7.20
2023-03-08T15:46:18.218Z,6.80
2023-03-08T15:48:50.268Z,7.73
2023-03-08T15:51:23.293Z,7.70
2023-03-08T15:53:53.819Z,7.17
2023-03-08T15:56:25.045Z,7.50
2023-03-08T15:58:57.692Z,8.27
2023-03-08T16:01:28.246Z,8.87
2023-03-08T16:03:58.616Z,8.20
2023-03-08T16:06:33.794Z,7.37
2023-03-08T16:09:04.823Z,9.37
2023-03-08T16:11:35.778Z,9.67
2023-03-08T16:14:06.568Z,8.30
2023-03-08T16:16:45.108Z,8.67
2023-03-08T16:19:16.105Z,7.13
2023-03-08T16:21:46.727Z,8.60
2023-03-08T16:24:16.966Z,8.07
2023-03-08T16:26:47.722Z,8.50
2023-03-08T16:29:18.306Z,8.10
2023-03-08T16:31:53.611Z,9.53
2023-03-08T16:34:25.820Z,10.23
2023-03-08T16:36:56.901Z,7.87
2023-03-08T16:39:27.460Z,9.37
2023-03-08T16:41:58.078Z,8.53
2023-03-08T16:44:30.631Z,8.63
2023-03-08T16:47:01.639Z,8.57
2023-03-08T16:49:35.216Z,9.70
2023-03-08T16:52:05.788Z,9.10
2023-03-08T16:54:36.088Z,10.10
2023-03-08T16:57:18.300Z,9.60
2023-03-08T16:59:49.562Z,10.07
2023-03-08T17:02:21.118Z,10.27
2023-03-08T17:04:56.862Z,12.90
2023-03-08T17:07:27.292Z,13.27
2023-03-08T17:09:58.353Z,14.20
2023-03-08T17:12:28.792Z,14.90
2023-03-08T17:14:59.306Z,17.30
2023-03-08T17:17:30.492Z,15.17
2023-03-08T17:20:00.917Z,17.70
2023-03-08T17:22:34.787Z,14.97
2023-03-08T17:25:05.794Z,13.73
2023-03-08T17:27:37.147Z,14.73
2023-03-08T17:30:13.521Z,15.93
2023-03-08T17:32:44.426Z,16.03
2023-03-08T17:35:15.235Z,29.03
2023-03-08T17:37:46.110Z,26.00
2023-03-08T17:40:18.427Z,19.83
2023-03-08T17:42:50.035Z,15.57
2023-03-08T17:45:20.800Z,18.93
2023-03-08T17:48:00.424Z,19.80
2023-03-08T17:50:33.656Z,15.47
2023-03-08T17:53:04.292Z,22.87
2023-03-08T17:55:40.957Z,20.10
2023-03-08T17:58:11.702Z,22.20
2023-03-08T18:00:42.398Z,20.07
2023-03-08T18:03:17.200Z,23.90
2023-03-08T18:05:51.996Z,21.77
2023-03-08T18:08:22.506Z,23.20
2023-03-08T18:10:58.230Z,19.87
2023-03-08T18:13:28.571Z,16.47
2023-03-08T18:15:59.332Z,15.57
2023-03-08T18:18:30.349Z,17.83
2023-03-08T18:21:12.551Z,21.07
2023-03-08T18:23:44.664Z,26.37
2023-03-08T18:26:20.137Z,28.27
2023-03-08T18:28:50.965Z,31.40
2023-03-08T18:31:25.292Z,27.73
2023-03-08T18:33:59.734Z,25.53
2023-03-08T18:36:30.908Z,26.97
2023-03-08T18:39:07.560Z,23.30
2023-03-08T18:41:42.406Z,24.80
2023-03-08T18:44:13.152Z,21.73
2023-03-08T18:46:43.895Z,17.30
2023-03-08T18:49:15.176Z,19.37
2023-03-08T18:51:46.628Z,17.00
2023-03-08T18:54:19.839Z,17.87
2023-03-08T18:56:52.990Z,18.33
2023-03-08T18:59:25.932Z,18.93
2023-03-08T19:01:56.350Z,16.90
2023-03-08T19:04:27.147Z,16.30
2023-03-08T19:07:02.540Z,17.73
2023-03-08T19:09:34.033Z,18.10
2023-03-08T19:12:04.955Z,21.47
2023-03-08T19:14:35.620Z,23.47
2023-03-08T19:17:06.143Z,27.37
2023-03-08T19:19:37.582Z,26.13
2023-03-08T19:22:08.857Z,18.73
2023-03-08T19:24:44.529Z,16.03
2023-03-08T19:27:14.992Z,17.37
2023-03-08T19:29:45.165Z,17.73
2023-03-08T19:32:16.941Z,15.20
2023-03-08T19:34:48.441Z,14.50
2023-03-08T19:37:19.251Z,13.83
2023-03-08T19:39:50.743Z,19.23
2023-03-08T19:42:23.190Z,16.33
2023-03-08T19:44:54.217Z,16.73
2023-03-08T19:47:24.962Z,15.70
2023-03-08T19:50:01.382Z,15.50
2023-03-08T19:52:32.623Z,15.20
2023-03-08T19:55:05.740Z,15.70
2023-03-08T19:57:41.012Z,13.73
2023-03-08T20:00:13.088Z,22.27
2023-03-08T20:02:45.110Z,15.40
2023-03-08T20:05:17.865Z,13.80
2023-03-08T20:07:49.121Z,16.53
2023-03-08T20:10:20.359Z,18.17
2023-03-08T20:12:51.846Z,18.03
2023-03-08T20:15:23.755Z,21.00
2023-03-08T20:17:54.095Z,17.33
2023-03-08T20:20:24.661Z,21.03
2023-03-08T20:23:00.332Z,18.57
2023-03-08T20:25:31.377Z,20.53
2023-03-08T20:28:02.540Z,19.60
2023-03-08T20:30:33.739Z,16.77
2023-03-08T20:33:05.077Z,16.03
2023-03-08T20:35:36.272Z,16.83
2023-03-08T20:38:07.341Z,18.97
2023-03-08T20:40:39.906Z,18.83
2023-03-08T20:43:10.467Z,17.80
2023-03-08T20:45:41.328Z,21.07
2023-03-08T20:48:15.611Z,16.67
2023-03-08T20:50:46.665Z,16.70
2023-03-08T20:53:17.196Z,21.17
2023-03-08T20:55:47.598Z,17.20
2023-03-08T20:58:18.447Z,20.77
2023-03-08T21:00:49.144Z,19.00
2023-03-08T21:03:19.277Z,21.80
2023-03-08T21:05:49.598Z,22.80
2023-03-08T21:08:23.608Z,21.53
2023-03-08T21:10:57.918Z,19.57
2023-03-08T21:13:28.305Z,17.03
2023-03-08T21:16:10.624Z,18.93
2023-03-08T21:18:45.027Z,19.47
2023-03-08T21:21:27.434Z,23.80
2023-03-08T21:23:59.017Z,26.50
2023-03-08T21:26:29.867Z,21.00
2023-03-08T21:29:07.563Z,20.97
2023-03-08T21:31:44.501Z,20.30
2023-03-08T21:34:15.415Z,18.40
2023-03-08T21:36:48.059Z,17.67
2023-03-08T21:39:18.427Z,20.83
2023-03-08T21:41:49.760Z,16.60
2023-03-08T21:44:25.256Z,16.13
2023-03-08T21:46:55.931Z,15.13
2023-03-08T21:49:28.174Z,14.63
2023-03-08T21:51:59.097Z,18.40
2023-03-08T21:54:30.762Z,14.80
2023-03-08T21:57:01.540Z,16.70
2023-03-08T21:59:32.288Z,21.53
2023-03-08T22:02:04.506Z,23.27
2023-03-08T22:04:36.899Z,20.60
2023-03-08T22:07:07.383Z,21.17
2023-03-08T22:09:42.761Z,19.13
2023-03-08T22:12:14.184Z,17.00
2023-03-08T22:14:44.571Z,17.10
2023-03-08T22:17:15.399Z,37.07
2023-03-08T22:19:45.848Z,40.57
2023-03-08T22:22:17.398Z,29.10
2023-03-08T22:24:47.843Z,20.53
2023-03-08T22:27:23.192Z,18.00
2023-03-08T22:29:54.999Z,21.73
2023-03-08T22:32:25.694Z,18.50
2023-03-08T22:35:01.344Z,18.70
2023-03-08T22:37:38.159Z,22.97
2023-03-08T22:40:12.343Z,21.70
2023-03-08T22:42:47.203Z,18.40
2023-03-08T22:45:17.373Z,22.63
2023-03-08T22:47:50.783Z,19.50
2023-03-08T22:50:27.941Z,20.87
2023-03-08T22:52:58.629Z,19.90
2023-03-08T22:55:29.585Z,21.20
2023-03-08T22:58:05.036Z,17.87
2023-03-08T23:00:36.080Z,19.10
2023-03-08T23:03:06.673Z,15.87
2023-03-08T23:05:37.149Z,16.27
2023-03-08T23:08:07.813Z,17.97
2023-03-08T23:10:39.654Z,16.40
2023-03-08T23:13:14.355Z,17.10
2023-03-08T23:15:48.244Z,14.60
2023-03-08T23:18:18.784Z,16.73
2023-03-08T23:20:49.261Z,15.43
2023-03-08T23:23:24.486Z,15.83
2023-03-08T23:25:54.782Z,16.90
2023-03-08T23:28:25.513Z,15.40
2023-03-08T23:30:55.790Z,13.40
2023-03-08T23:33:26.216Z,15.57
2023-03-08T23:35:56.568Z,13.90
2023-03-08T23:38:27.703Z,15.07
2023-03-08T23:41:05.216Z,15.33
2023-03-08T23:43:36.713Z,14.00
2023-03-08T23:46:09.119Z,17.90
2023-03-08T23:48:42.527Z,17.27
2023-03-08T23:51:15.865Z,22.67
2023-03-08T23:53:56.976Z,14.13
2023-03-08T23:56:36.846Z,15.07
2023-03-08T23:59:17.524Z,14.57
